Houghton County Memorial Airport


Codes: KCMX/CMX
Name: Houghton County Memorial Airport
City: Hancock
Country: United States
Elevation: 1095 ft.
Wikipedia:

Photos at Houghton County Memorial Airport


   Photos courtesy of SpottingLog. You can add your own sightings and photos by signing up for a free trial today.



No photos found.

Weather at Houghton County Memorial Airport


Time (UTC)DescriptionTempratureWindCloud coverageVisibilityPressureHumidity
19-Apr-2024 03:00Broken Clouds5°C13 mph, W68%10000m1014hPa62%
19-Apr-2024 06:00Broken Clouds4°C16 mph, W58%10000m1014hPa64%
19-Apr-2024 09:00Broken Clouds2°C16 mph, W60%10000m1013hPa69%
19-Apr-2024 12:00Light Snow0°C18 mph, W62%10000m1012hPa73%
19-Apr-2024 15:00Light Snow1°C20 mph, W92%10000m1012hPa65%
19-Apr-2024 18:00Light Snow2°C22 mph, W90%10000m1012hPa59%
19-Apr-2024 21:00Scattered Clouds3°C22 mph, W41%10000m1011hPa57%
20-Apr-2024 00:00Scattered Clouds2°C20 mph, W46%10000m1011hPa60%
20-Apr-2024 03:00Overcast Clouds2°C18 mph, W95%10000m1012hPa75%
20-Apr-2024 06:00Overcast Clouds0°C18 mph, W98%10000m1013hPa82%
20-Apr-2024 09:00Light Snow1°C18 mph, NW100%10000m1014hPa79%
20-Apr-2024 12:00Overcast Clouds-0°C18 mph, NW87%10000m1017hPa74%
20-Apr-2024 15:00Overcast Clouds1°C18 mph, NW95%10000m1019hPa65%
20-Apr-2024 18:00Overcast Clouds2°C16 mph, W97%10000m1020hPa60%
20-Apr-2024 21:00Few Clouds3°C18 mph, W13%10000m1018hPa52%
21-Apr-2024 00:00Few Clouds4°C18 mph, W22%10000m1017hPa51%
21-Apr-2024 03:00Few Clouds3°C13 mph, W14%10000m1017hPa65%
21-Apr-2024 06:00Few Clouds3°C16 mph, W12%10000m1016hPa71%
21-Apr-2024 09:00Clear Sky2°C18 mph, W6%10000m1015hPa78%
21-Apr-2024 12:00Few Clouds2°C18 mph, W16%10000m1015hPa81%
21-Apr-2024 15:00Broken Clouds3°C18 mph, W71%10000m1015hPa70%
21-Apr-2024 18:00Broken Clouds5°C16 mph, W72%10000m1015hPa64%
21-Apr-2024 21:00Overcast Clouds6°C13 mph, W89%10000m1014hPa58%
22-Apr-2024 00:00Broken Clouds3°C7 mph, NE76%10000m1016hPa81%
22-Apr-2024 03:00Broken Clouds-0°C9 mph, E66%10000m1018hPa90%
22-Apr-2024 06:00Scattered Clouds-1°C7 mph, E50%10000m1018hPa72%
22-Apr-2024 09:00Few Clouds-1°C7 mph, E24%10000m1017hPa70%
22-Apr-2024 12:00Scattered Clouds-0°C9 mph, SE38%10000m1017hPa70%
22-Apr-2024 15:00Overcast Clouds4°C9 mph, SE100%10000m1015hPa64%
22-Apr-2024 18:00Overcast Clouds6°C11 mph, E99%10000m1013hPa57%
22-Apr-2024 21:00Overcast Clouds5°C9 mph, E100%10000m1011hPa59%
23-Apr-2024 00:00Overcast Clouds1°C11 mph, E100%10000m1012hPa73%
23-Apr-2024 03:00Overcast Clouds1°C11 mph, E100%10000m1012hPa75%
23-Apr-2024 06:00Light Snow0°C11 mph, E100%10000m1011hPa78%
23-Apr-2024 09:00Overcast Clouds0°C13 mph, NE100%10000m1011hPa71%
23-Apr-2024 12:00Overcast Clouds-1°C18 mph, NE100%10000m1013hPa62%
23-Apr-2024 15:00Overcast Clouds-0°C20 mph, NE98%10000m1016hPa53%
23-Apr-2024 18:00Broken Clouds-1°C20 mph, NE61%10000m1019hPa44%
23-Apr-2024 21:00Clear Sky-0°C18 mph, N2%10000m1022hPa35%
24-Apr-2024 00:00Clear Sky-0°C16 mph, N1%10000m1024hPa36%